Latest Weather Observations for Thredbo Top Station

IDN60901

Issued at 7:41 pm EST Sunday 20 August 2017 (issued every 10 minutes, with the page automatically refreshed every 10 minutes)

About weather observations | Map of Canberra area stations | Latest observations for Canberra area | Other Formats
Station Details ID: 071032 Name: THREDBO AWS Lat: -36.49 Lon: 148.29 Height: 1957.0 m
Data from the previous 72 hours. | See also: Recent months at Thredbo Top Station
Date/Time
EST
Temp
°C
App
Temp
°C
Dew
Point
°C
Rel
Hum
%
Delta-T
°C
Wind Press
QNH
hPa
Press
MSL
hPa
Rain since
9am
mm
Dir  Spd
km/h
Gust
km/h
Spd
kts
Gust
kts
20/07:30pm -8.2 - -12.7 70 0.9 - - - - - 1017.4 - -
20/07:00pm -8.5 - -13.3 68 0.9 - - - - - 1017.6 1020.8 -
20/06:30pm -8.7 - -13.0 71 0.8 - - - - - 1018.0 - -
20/06:00pm -8.6 - -13.8 66 1.0 - - - - - 1018.0 1021.3 -
20/05:30pm -7.3 - -13.3 62 1.3 - - - - - 1018.0 - -
20/05:00pm -7.0 - -14.3 56 1.6 - - - - - 1018.3 1021.5 -
20/04:30pm -6.4 - -15.1 50 2.0 - - - - - 1018.4 - -
20/04:00pm -6.2 - -15.1 49 2.0 - - - - - 1018.4 1021.7 -
20/03:30pm -5.3 - -16.4 41 2.5 - - - - - 1018.4 - -
20/03:00pm -4.1 - -16.9 36 3.0 - - - - - 1018.8 1022.0 4.0
20/02:30pm -3.1 - -16.4 35 3.3 - - - - - 1018.9 - -
20/02:00pm -3.4 - -16.6 35 3.2 - - - - - 1019.1 1022.4 -
20/01:30pm -2.6 - -17.0 32 3.6 - - - - - 1019.5 - -
20/01:00pm -2.1 - -16.9 31 3.7 - - - - - 1020.0 1023.3 -
20/12:30pm -3.3 - -16.9 34 3.3 - - - - - 1020.5 - -
20/12:00pm -2.8 - -17.5 31 3.6 - - - - - 1020.7 1024.1 -
20/11:30am -2.6 - -16.6 33 3.5 - - - - - 1021.1 - -
20/11:00am -2.3 - -15.0 37 3.3 - - - - - 1021.3 1024.7 -
20/10:30am -3.0 - -11.9 50 2.5 - - - - - 1021.7 - -
20/10:00am -4.0 - -9.4 66 1.5 - - - - - 1021.6 1025.0 -
20/09:30am -5.4 - -9.3 74 1.0 - - - - - 1021.7 - -
20/09:00am -6.4 - -9.1 81 0.6 - - - - - 1021.8 1025.2 0.0
20/08:30am -7.4 - -9.6 84 0.4 - - - - - 1021.9 - -
20/08:00am -7.8 - -9.7 86 0.3 - - - - - 1021.9 1025.3 -
20/07:30am -8.4 - -10.3 86 0.2 - - - - - 1021.6 - -
20/07:00am -8.9 - -10.8 86 0.2 - - - - - 1021.4 1024.8 -
20/06:30am -8.7 - -10.6 86 0.2 - - - - - 1021.1 - -
20/06:00am -8.7 - -10.6 86 0.2 - - - - - 1020.8 1024.2 -
20/05:30am -8.5 - -10.4 86 0.2 - - - - - 1020.6 - -
20/05:00am -8.6 - -10.5 86 0.2 - - - - - 1020.2 1023.6 -
20/04:30am -8.7 - -10.6 86 0.2 - - - - - 1020.5 - -
20/04:00am -8.5 - -10.4 86 0.2 - - - - - 1020.5 1023.8 -
20/03:30am -8.4 - -10.3 86 0.2 - - - - - 1020.4 - -
20/03:00am -8.6 - -10.5 86 0.2 - - - - - 1020.2 1023.6 0.0
20/02:30am -8.4 - -10.3 86 0.2 - - - - - 1020.4 - -
20/02:00am -8.5 - -10.4 86 0.2 - - - - - 1020.5 1023.8 -
20/01:30am -8.5 - -10.4 86 0.2 - - - - - 1020.7 - -
20/01:00am -8.5 - -10.4 86 0.2 - - - - - 1020.5 1023.8 -
20/12:30am -8.6 - -10.5 86 0.2 - - - - - 1020.1 - -
20/12:00am -8.5 - -10.4 86 0.2 - - - - - 1020.1 1023.4 -
 
Date/Time
EST
Temp
°C
App
Temp
°C
Dew
Point
°C
Rel
Hum
%
Delta-T
°C
Wind Press
QNH
hPa
Press
MSL
hPa
Rain since
9am
mm
Dir  Spd
km/h
Gust
km/h
Spd
kts
Gust
kts
19/11:30pm -8.3 - -10.4 85 0.3 - - - - - 1020.0 - -
19/11:00pm -7.9 - -10.0 85 0.3 - - - - - 1020.1 1023.4 -
19/10:30pm -7.7 - -9.8 85 0.3 - - - - - 1020.2 - -
19/10:00pm -7.6 - -9.7 85 0.3 - - - - - 1020.4 1023.7 -
19/09:30pm -7.6 - -9.8 84 0.4 - - - - - 1020.2 - -
19/09:00pm -7.4 - -9.8 83 0.4 - - - - - 1020.2 1023.6 0.0
19/08:30pm -7.4 - -9.6 84 0.4 - - - - - 1020.1 - -
19/08:00pm -7.4 - -9.6 84 0.4 - - - - - 1019.7 1023.1 -
19/07:30pm -7.2 - -9.6 83 0.4 - - - - - 1019.7 - -
19/07:00pm -7.1 - -9.3 84 0.4 - - - - - 1020.0 1023.3 -
19/06:30pm -7.1 - -9.6 82 0.5 - - - - - 1019.9 - -
19/06:00pm -6.7 - -9.6 80 0.6 - - - - - 1019.9 1023.2 -
19/05:30pm -6.4 - -9.6 78 0.7 - - - - - 1019.6 - -
19/05:00pm -6.2 - -9.6 77 0.8 - - - - - 1019.3 1022.5 -
19/04:30pm -5.8 - -9.7 74 0.9 - - - - - 1019.1 - -
19/04:00pm -5.9 - -10.1 72 1.0 - - - - - 1018.9 1022.2 -
19/03:30pm -5.4 - -10.7 66 1.3 - - - - - 1018.8 - -
19/03:00pm -5.2 - -11.9 59 1.7 - - - - - 1018.7 1021.9 0.0
19/02:30pm -5.1 - -12.1 58 1.8 - - - - - 1018.5 - -
19/02:00pm -5.1 - -11.6 60 1.6 - - - - - 1018.3 1021.5 -
19/01:30pm -4.9 - -11.7 59 1.7 - - - - - 1018.2 - -
19/01:00pm -4.9 - -11.2 61 1.6 - - - - - 1017.9 1021.1 -
19/12:30pm -5.1 - -10.3 67 1.3 - - - - - 1017.7 - -
19/12:00pm -5.6 - -9.8 72 1.0 - - - - - 1017.8 1021.0 -
19/11:30am -5.8 - -9.5 75 0.9 - - - - - 1017.7 - -
19/11:00am -6.0 - -9.2 78 0.7 - - - - - 1017.4 1020.6 -
19/10:30am -6.2 - -8.9 81 0.6 - - - - - 1017.1 - -
19/10:00am -6.8 - -9.5 81 0.5 - - - - - 1016.7 1019.9 -
19/09:30am -7.0 - -9.4 83 0.4 - - - - - 1016.2 - -
19/09:00am -6.7 - -9.1 83 0.5 - - - - - 1016.0 1019.1 0.0
19/08:30am -6.9 - -9.1 84 0.4 - - - - - 1015.6 - -
19/08:00am -6.8 - -9.0 84 0.4 - - - - - 1015.1 1018.2 -
19/07:30am -7.0 - -8.9 86 0.3 - - - - - 1014.7 - -
19/07:00am -7.2 - -9.1 86 0.3 - - - - - - - -
19/06:30am -7.3 - -9.2 86 0.3 - - - - - - - -
19/06:00am -7.4 - -9.2 87 0.3 - - - - - - - -
19/05:30am -7.5 - -9.3 87 0.2 - - - - - - - -
19/05:00am -7.6 - -9.4 87 0.2 - - - - - - - -
19/04:30am -7.2 - -9.0 87 0.3 - - - - - - - -
19/04:00am -7.0 - -8.8 87 0.3 - - - - - - - -
19/03:30am -6.7 - -8.6 86 0.3 - - - - - - - -
19/03:00am -6.6 - -8.5 86 0.3 - - - - - - - 0.0
19/02:30am -6.5 - -8.4 86 0.3 - - - - - - - -
19/02:00am -6.7 - -8.5 87 0.3 - - - - - - - -
19/01:30am -6.5 - -8.4 86 0.3 - - - - - - - -
19/01:00am -6.6 - -8.5 86 0.3 - - - - - - - -
19/12:30am -6.8 - -8.6 87 0.3 - - - - - - - -
19/12:00am -6.3 - -8.2 86 0.3 - - - - - - - -
 
Date/Time
EST
Temp
°C
App
Temp
°C
Dew
Point
°C
Rel
Hum
%
Delta-T
°C
Wind Press
QNH
hPa
Press
MSL
hPa
Rain since
9am
mm
Dir  Spd
km/h
Gust
km/h
Spd
kts
Gust
kts
18/11:30pm -5.8 - -8.1 84 0.5 - - - - - - - -
18/11:00pm -5.5 - -8.1 82 0.6 - - - - - - - -
18/10:30pm -5.5 - -7.9 83 0.5 - - - - - - - -
18/10:00pm -5.4 - -8.0 82 0.6 - - - - - - - -
18/09:30pm -5.3 - -7.9 82 0.6 - - - - - - - -
18/09:00pm -5.3 - -8.0 81 0.6 - - - - - - - 0.0
18/08:30pm -5.2 - -8.1 80 0.7 - - - - - - - -
18/08:00pm -5.0 - -8.1 79 0.8 - - - - - - - -
18/07:30pm -4.9 - -8.3 77 0.9 - - - - - - - -
18/07:00pm -4.7 - -8.8 73 1.1 - - - - - - - -
18/06:30pm -4.5 - -8.6 73 1.1 - - - - - - - -
18/06:00pm -4.6 - -8.7 73 1.1 - - - - - - - -
18/05:30pm -4.5 - -8.9 71 1.2 - - - - - - - -
18/05:00pm -4.5 - -8.8 72 1.2 - - - - - - - -
18/04:30pm -4.5 - -9.3 69 1.3 - - - - - - - -
18/04:00pm -4.2 - -9.6 66 1.5 - - - - - - - -
18/03:30pm -4.4 - -9.6 67 1.4 - - - - - - - -
18/03:00pm -4.3 - -10.5 62 1.7 - - - - - - - 0.0
18/02:30pm -4.1 - -9.5 66 1.5 - - - - - - - -
18/02:00pm -4.2 - -9.4 67 1.4 - - - - - - - -
18/01:30pm -4.5 - -9.9 66 1.4 - - - - - - - -
18/01:00pm -4.3 - -9.7 66 1.5 - - - - - - - -
18/12:30pm -4.3 - -9.5 67 1.4 - - - - - - - -
18/12:00pm -4.4 - -9.0 70 1.2 - - - - - - - -
18/11:30am -4.7 - -8.8 73 1.1 - - - - - - - -
18/11:00am -4.7 - -8.4 75 1.0 - - - - - - - -
18/10:30am -4.9 - -8.3 77 0.9 - - - - - - - -
18/10:00am -5.0 - -8.1 79 0.8 - - - - - - - -
18/09:30am -5.1 - -7.8 81 0.6 - - - - - - - -
18/09:00am -5.2 - -7.9 81 0.6 - - - - - - - 0.0
18/08:30am -5.3 - -8.0 81 0.6 - - - - - - - -
18/08:00am -5.4 - -8.1 81 0.6 - - - - - - - -
18/07:30am -5.4 - -8.0 82 0.6 - - - - - - - -
18/07:00am -5.3 - -8.0 81 0.6 - - - - - - - -
18/06:30am -5.4 - -8.0 82 0.6 - - - - - - - -
18/06:00am -5.3 - -8.0 81 0.6 - - - - - - - -
18/05:30am -5.2 - -8.1 80 0.7 - - - - - - - -
18/05:00am -5.1 - -7.8 81 0.6 - - - - - - - -
18/04:30am -4.8 - -7.7 80 0.7 - - - - - - - -
18/04:00am -4.5 - -7.4 80 0.7 - - - - - - - -
18/03:30am -4.6 - -7.4 81 0.7 - - - - - - - -
18/03:00am -4.5 - -7.3 81 0.7 - - - - - - - 0.0
18/02:30am -4.4 - -7.3 80 0.8 - - - - - - - -
18/02:00am -4.3 - -7.5 78 0.9 - - - - - - - -
18/01:30am -4.0 - -6.4 83 0.6 - - - - - - - -
18/01:00am -4.2 - -6.5 84 0.6 - - - - - - - -
18/12:30am -3.9 - -6.5 82 0.7 - - - - - - - -
18/12:00am -3.8 - -6.7 80 0.8 - - - - - - - -
 
Date/Time
EST
Temp
°C
App
Temp
°C
Dew
Point
°C
Rel
Hum
%
Delta-T
°C
Wind Press
QNH
hPa
Press
MSL
hPa
Rain since
9am
mm
Dir  Spd
km/h
Gust
km/h
Spd
kts
Gust
kts
17/11:30pm -3.8 - -5.6 87 0.4 - - - - - - - -
17/11:00pm -3.7 - -4.9 91 0.3 - - - - - - - -
17/10:30pm -3.5 - -4.8 91 0.3 - - - - - - - -
17/10:00pm -3.1 - -4.4 91 0.3 - - - - - - - -
17/09:30pm -3.0 - -4.3 91 0.3 - - - - - - - -
17/09:00pm -3.1 - -4.4 91 0.3 - - - - - - - 0.0
17/08:30pm -2.9 - -4.2 91 0.3 - - - - - - - -
17/08:00pm -2.8 - -4.1 91 0.3 - - - - - - - -

Latest Capital City Observations: Canberra | Sydney | Melbourne | Brisbane | Adelaide | Perth | Hobart | Darwin

Other Formats:

Comma delimited format used in spreadsheet applications
http://www.bom.gov.au/fwo/IDN60903/IDN60903.95909.axf

JavaScript Object Notation format (JSON) in row-major order
http://www.bom.gov.au/fwo/IDN60903/IDN60903.95909.json